Flight Track Log - Related Links

Times and Time Zones

All times are in EDT time to prevent confusion due to time zone crossing. See the SKW6345 flight status page for this flight to view local times or setup timezone preferences in your user account.

Time Position Orientation Groundspeed Altitude Reporting Facility
EDT Latitude Longitude Course Direction KTS MPH feet Rate Location/Type
Mon 04:35:12 PM 45.7597 -111.1272 290° West 164 189 5,400  Level Salt Lake Center
Mon 04:36:14 PM 45.7178 -111.1650 212° Southwest 223 257 7,200 1,659 Climbing Salt Lake Center
Mon 04:37:00 PM 45.7289 -111.5188 282° West  Level FlightAware Approximate
Mon 04:37:15 PM 45.7031 -111.2597 257° West 254 292 8,800  Level Salt Lake Center
Mon 04:38:00 PM 45.7394 -111.6608 288° West  Level FlightAware Approximate
Mon 04:38:17 PM 45.7164 -111.3717 280° West 271 312 10,600  Level Salt Lake Center
Mon 04:39:00 PM 45.7699 -111.7980 288° West  Level FlightAware Approximate
Mon 04:39:19 PM 45.7289 -111.4939 278° West 290 334 11,900  Level Salt Lake Center
Mon 04:40:00 PM 45.8005 -111.9353 290° West  Level FlightAware Approximate
Mon 04:40:21 PM 45.7431 -111.6239 279° West 318 366 13,600  Level Salt Lake Center
Mon 04:41:22 PM 45.7761 -111.7817 287° West 341 392 15,200 1,512 Climbing Salt Lake Center
Mon 04:42:24 PM 45.7644 -111.9161 263° West 348 400 16,700 1,659 Climbing Salt Lake Center
Mon 04:43:25 PM 45.7136 -112.0283 237° Southwest 335 386 18,600 1,756 Climbing Salt Lake Center
Mon 04:44:27 PM 45.6639 -112.1378 237° Southwest 330 380 20,300 1,306 Climbing Salt Lake Center
Mon 04:45:29 PM 45.6211 -112.2411 239° Southwest 309 356 21,300 780 Climbing Salt Lake Center
Mon 04:46:30 PM 45.5686 -112.3464 235° Southwest 321 369 21,900 683 Climbing Salt Lake Center
Mon 04:47:32 PM 45.5133 -112.4581 235° Southwest 342 394 22,700 774 Climbing Salt Lake Center
Mon 04:48:34 PM 45.4556 -112.5736 235° Southwest 356 410 23,500 878 Climbing Salt Lake Center
Mon 04:49:35 PM 45.3858 -112.7144 235° Southwest 362 417 24,500 878 Climbing Salt Lake Center
Mon 04:50:37 PM 45.3314 -112.8256 235° Southwest 365 420 25,300 823 Climbing Salt Lake Center
Mon 04:51:39 PM 45.2656 -112.9592 235° Southwest 370 426 26,200 780 Climbing Salt Lake Center
Mon 04:52:40 PM 45.2086 -113.0725 235° Southwest 369 425 26,900 780 Climbing Salt Lake Center
Mon 04:53:42 PM 45.1419 -113.2042 234° Southwest 368 423 27,800 823 Climbing Salt Lake Center
Mon 04:54:44 PM 45.0850 -113.3147 234° Southwest 365 420 28,600 780 Climbing Salt Lake Center
Mon 04:55:45 PM 45.0306 -113.4242 235° Southwest 358 412 29,400 683 Climbing Salt Lake Center
Mon 04:56:47 PM 44.9658 -113.5486 234° Southwest 355 409 30,000 435 Climbing Salt Lake Center
Mon 04:57:49 PM 44.9122 -113.6561 235° Southwest 352 405 30,300 341 Climbing Salt Lake Center
Mon 04:58:50 PM 44.8453 -113.7850 234° Southwest 362 417 30,700 293 Climbing Salt Lake Center
Mon 04:59:52 PM 44.7886 -113.8961 234° Southwest 365 420 30,900 290 Climbing Salt Lake Center
Mon 05:00:54 PM 44.7239 -114.0231 234° Southwest 368 423 31,300 341 Climbing Salt Lake Center
Mon 05:01:55 PM 44.6647 -114.1342 233° Southwest 369 425 31,600 341 Climbing Salt Lake Center
Mon 05:02:57 PM 44.5967 -114.2661 234° Southwest 373 429 32,000 194 Climbing Salt Lake Center
Mon 05:03:59 PM 44.5389 -114.3789 234° Southwest 372 428 32,000  Level Salt Lake Center
Mon 05:05:00 PM 44.4675 -114.5150 234° Southwest 383 441 32,000  Level Salt Lake Center
Mon 05:06:02 PM 44.4050 -114.6328 233° Southwest 390 449 32,000  Level Salt Lake Center
Mon 05:07:04 PM 44.3342 -114.7442 228° Southwest 395 455 32,000  Level Salt Lake Center
Mon 05:08:05 PM 44.2483 -114.8692 226° Southwest 397 457 32,000  Level Salt Lake Center
Mon 05:09:07 PM 44.1769 -114.9778 228° Southwest 397 457 32,000  Level Salt Lake Center
Mon 05:10:09 PM 44.0892 -115.1053 226° Southwest 399 459 32,000  Level Salt Lake Center
Mon 05:11:10 PM 44.0158 -115.2147 227° Southwest 403 464 32,000  Level Salt Lake Center
Mon 05:12:12 PM 43.9450 -115.3217 227° Southwest 393 452 32,000  Level Salt Lake Center
Mon 05:13:14 PM 43.8589 -115.4469 226° Southwest 398 458 32,000  Level Salt Lake Center
Mon 05:14:15 PM 43.7864 -115.5536 227° Southwest 396 456 32,000  Level Salt Lake Center
Mon 05:15:17 PM 43.7017 -115.6756 226° Southwest 392 451 32,000  Level Salt Lake Center
Mon 05:16:19 PM 43.6278 -115.7850 227° Southwest 403 464 32,000  Level Salt Lake Center
Mon 05:17:21 PM 43.5547 -115.8908 226° Southwest 398 458 32,000  Level Salt Lake Center
Mon 05:18:22 PM 43.4689 -116.0139 226° Southwest 398 458 32,000  Level Salt Lake Center
Mon 05:19:24 PM 43.3956 -116.1192 226° Southwest 397 457 32,000  Level Salt Lake Center
Mon 05:20:26 PM 43.3103 -116.2414 226° Southwest 397 457 32,000  Level Salt Lake Center
Mon 05:21:28 PM 43.2369 -116.3447 226° Southwest 396 456 32,000  Level Salt Lake Center
Mon 05:22:29 PM 43.1514 -116.4667 226° Southwest 395 455 32,000  Level Salt Lake Center
Mon 05:23:31 PM 43.0778 -116.5694 226° Southwest 397 457 32,000  Level Salt Lake Center
Mon 05:24:33 PM 43.0122 -116.6817 231° Southwest 394 453 32,000  Level Salt Lake Center
Mon 05:25:35 PM 42.9442 -116.8242 237° Southwest 398 458 32,000  Level Salt Lake Center
Mon 05:26:37 PM 42.8867 -116.9453 237° Southwest 397 457 32,000  Level Salt Lake Center
Mon 05:27:39 PM 42.8114 -117.0794 233° Southwest 402 463 32,000  Level Salt Lake Center
Mon 05:28:41 PM 42.7367 -117.1814 225° Southwest 394 453 32,000  Level Salt Lake Center
Mon 05:29:42 PM 42.6481 -117.3000 225° Southwest 399 459 32,000  Level Salt Lake Center
Mon 05:30:44 PM 42.5736 -117.4017 225° Southwest 397 457 32,000  Level Salt Lake Center
Mon 05:31:46 PM 42.4861 -117.5167 224° Southwest 389 448 32,000  Level Salt Lake Center
Mon 05:32:48 PM 42.4114 -117.6175 225° Southwest 394 453 32,000  Level Salt Lake Center
Mon 05:33:50 PM 42.3356 -117.7186 225° Southwest 399 459 32,000  Level Salt Lake Center
Mon 05:34:52 PM 42.2489 -117.8347 225° Southwest 393 452 32,000  Level Salt Lake Center
Mon 05:35:54 PM 42.1714 -117.9386 225° Southwest 395 455 32,000  Level Salt Lake Center
Mon 05:36:56 PM 42.0842 -118.0517 224° Southwest 392 451 32,000  Level Salt Lake Center
Mon 05:37:58 PM 42.0097 -118.1492 224° Southwest 392 451 32,000  Level Salt Lake Center
Mon 05:39:00 PM 41.9347 -118.2469 224° Southwest 392 451 32,000  Level Salt Lake Center
Mon 05:40:02 PM 41.8467 -118.3603 224° Southwest 393 452 32,000  Level Salt Lake Center
Mon 05:41:04 PM 41.7717 -118.4572 224° Southwest 393 452 32,000  Level Salt Lake Center
Mon 05:42:06 PM 41.6831 -118.5717 224° Southwest 396 456 32,000  Level Salt Lake Center
Mon 05:43:08 PM 41.6081 -118.6678 224° Southwest 391 450 32,000  Level Salt Lake Center
Mon 05:44:10 PM 41.5192 -118.7803 223° Southwest 393 452 32,000  Level Salt Lake Center
Mon 05:45:11 PM 41.4439 -118.8783 224° Southwest 395 455 32,000  Level Salt Lake Center
Mon 05:46:13 PM 41.3561 -118.9897 224° Southwest 392 451 32,000  Level Salt Lake Center
Mon 05:47:15 PM 41.2803 -119.0853 223° Southwest 393 452 32,000  Level Salt Lake Center
Mon 05:48:17 PM 41.1933 -119.1947 223° Southwest 389 448 32,000  Level Salt Lake Center
Mon 05:49:19 PM 41.1178 -119.2906 224° Southwest 391 450 32,000  Level Salt Lake Center
Mon 05:50:21 PM 41.0283 -119.4011 223° Southwest 393 452 32,000  Level Salt Lake Center
Mon 05:51:23 PM 40.9558 -119.4908 223° Southwest 394 453 32,000  Level Salt Lake Center
Mon 05:52:25 PM 40.8758 -119.5886 223° Southwest 393 452 32,000  Level Salt Lake Center
Mon 05:53:27 PM 40.7806 -119.7089 224° Southwest 394 453 32,000  Level Salt Lake Center
Mon 05:54:29 PM 40.6997 -119.8064 222° Southwest 395 455 32,000  Level Salt Lake Center
Mon 05:55:31 PM 40.6194 -119.9050 223° Southwest 396 456 32,000  Level Salt Lake Center
Mon 05:56:33 PM 40.5381 -120.0039 223° Southwest 398 458 32,000  Level Salt Lake Center
Mon 05:57:34 PM 40.4581 -120.1028 223° Southwest 397 457 32,000  Level Salt Lake Center
Mon 05:58:36 PM 40.3772 -120.2014 223° Southwest 399 459 32,000  Level Salt Lake Center
Mon 05:59:38 PM 40.2794 -120.3192 223° Southwest 398 458 32,000  Level Salt Lake Center
Mon 06:00:51 PM 40.1814 -120.4381 223° Southwest 403 464 32,000  Level Oakland Center
Mon 06:01:52 PM 40.1050 -120.5311 223° Southwest 392 451 32,000  Level Oakland Center
Mon 06:02:53 PM 40.0236 -120.6297 223° Southwest 392 451 32,000  Level Oakland Center
Mon 06:03:54 PM 39.9392 -120.7278 222° Southwest 398 458 32,000  Level Oakland Center
Mon 06:04:55 PM 39.8567 -120.8256 222° Southwest 400 460 32,000  Level Oakland Center
Mon 06:05:57 PM 39.7742 -120.9203 221° Southwest 400 460 32,000  Level Oakland Center
Mon 06:06:58 PM 39.6928 -121.0186 223° Southwest 400 460 32,000  Level Oakland Center
Mon 06:07:59 PM 39.6106 -121.1158 222° Southwest 400 460 32,000  Level Oakland Center
Mon 06:09:00 PM 39.5292 -121.2122 222° Southwest 397 457 32,000  Level Oakland Center
Mon 06:10:01 PM 39.4514 -121.3039 222° Southwest 387 445 32,000  Level Oakland Center
Mon 06:11:03 PM 39.3589 -121.4114 222° Southwest 378 435 32,000  Level Oakland Center
Mon 06:12:04 PM 39.2831 -121.4997 222° Southwest 372 428 32,000  Level Oakland Center
Mon 06:13:05 PM 39.2083 -121.5875 222° Southwest 368 423 32,000  Level Oakland Center
Mon 06:14:07 PM 39.1328 -121.6758 222° Southwest 369 425 32,000  Level Oakland Center
Mon 06:15:08 PM 39.0564 -121.7622 221° Southwest 368 423 32,000  Level Oakland Center
Mon 06:16:09 PM 38.9792 -121.8536 223° Southwest 376 433 32,000  Level Oakland Center
Mon 06:17:10 PM 38.9019 -121.9419 222° Southwest 375 432 32,000  Level Oakland Center
Mon 06:18:12 PM 38.8242 -122.0294 221° Southwest 373 429 32,000  Level Oakland Center
Mon 06:19:13 PM 38.7314 -122.1358 222° Southwest 374 430 32,000  Level Oakland Center
Mon 06:20:14 PM 38.6631 -122.2122 221° Southwest 377 434 32,000  Level Oakland Center
Mon 06:21:15 PM 38.5886 -122.3006 223° Southwest 370 426 32,000 -1,122 Level Oakland Center
Mon 06:22:17 PM 38.4894 -122.4108 221° Southwest 393 452 29,700 -2,585 Descending Oakland Center
Mon 06:23:18 PM 38.4047 -122.5072 222° Southwest 405 466 26,700 -2,951 Descending Oakland Center
Mon 06:24:19 PM 38.3208 -122.6031 222° Southwest 406 467 23,700 -3,148 Descending Oakland Center
Mon 06:25:20 PM 38.2378 -122.6942 221° Southwest 396 456 20,300 -3,393 Descending Oakland Center
Mon 06:26:21 PM 38.1600 -122.7825 222° Southwest 382 440 16,800 -3,122 Descending Oakland Center
Mon 06:27:23 PM 38.0700 -122.8275 201° Southwest 372 428 13,900 -2,585 Descending Oakland Center
Mon 06:28:24 PM 37.9811 -122.7619 150° Southeast 381 438 11,500 -1,426 Descending Oakland Center
Mon 06:29:25 PM 37.8883 -122.6653 141° Southeast 372 428 11,000 -291 Descending Oakland Center
Mon 06:30:07 PM 37.8333 -122.6000 137° Southeast 353 406 11,000  Level Northern Cal TRACON
Mon 06:31:07 PM 37.7667 -122.5333 142° Southeast 269 310 11,000  Level Northern Cal TRACON
Mon 06:32:07 PM 37.7167 -122.4833 142° Southeast 259 298 11,000  Level Northern Cal TRACON
Mon 06:33:01 PM 37.6667 -122.4167 133° Southeast 263 303 11,000  Level Northern Cal TRACON
Mon 06:34:01 PM 37.6167 -122.3667 142° Southeast 264 304 11,000 -500 Level Northern Cal TRACON
Mon 06:35:01 PM 37.5500 -122.3167 149° Southeast 261 300 10,000 -1,100 Descending Northern Cal TRACON
Mon 06:36:01 PM 37.5000 -122.2500 133° Southeast 251 289 8,800 -1,050 Descending Northern Cal TRACON
Mon 06:37:01 PM 37.4333 -122.2667 191° South 188 216 7,900 -1,050 Descending Northern Cal TRACON
Mon 06:38:01 PM 37.3833 -122.2500 165° South 205 236 6,700 -1,137 Descending Northern Cal TRACON
Mon 06:38:36 PM 37.3653 -122.2206 128° Southeast 204 235 6,100 -1,125 Descending Oakland Center
Mon 06:39:37 PM 37.3947 -122.1503 62° Northeast 219 252 4,900 -1,033 Descending Oakland Center
Mon 06:40:38 PM 37.4331 -122.1014 45° Northeast 218 251 4,000 -443 Descending Oakland Center
Mon 06:41:39 PM 37.4897 -122.0906 North 213 245 4,000 -393 Level Oakland Center
Mon 06:42:40 PM 37.5228 -122.1425 309° West 201 231 3,200 -689 Descending Oakland Center
Mon 06:43:41 PM 37.5464 -122.2042 296° West 198 228 2,600 -590 Descending Oakland Center

Login

Don't have an account? Register now (free) for customized features, flight alerts, and more!